SAV427 TFFR-KSAV
Flight info
| Callsign | SAV427 |
|---|---|
| Flight time | N/A |
| Altitude | 40000 |
| Route | GORET2F GORET R888 COY DCT SJU RTE6 BEANO Y290 HAGIT Y306 CHASO Y280 RUTOC Y304 VENDS Y185 MANLE Q89 OVENP Q87 VIYAP |
| Aircraft | CL60/M-SBDE1E2E3FGHIJ4J5J7M3RWXYZ/LB1V1D1 |
Departure
| Time | 2026-04-28 16:48 |
|---|---|
| Airport | Maryse Condé International Airport (TFFR) |
Arrival
| Time | N/A |
|---|---|
| Airport | Savannah Hilton Head International Airport (KSAV) |
| Time | Latitude | Longitude | Altitude | Speed | Heading |
|---|---|---|---|---|---|
| 2026-04-28 16:36 | 16.26225 | -61.52471 | 39 ft | 0 kts | 341° |
| 2026-04-28 16:45 | 16.26249 | -61.52479 | 38 ft | 8 kts | 342° |
| 2026-04-28 16:45 | 16.26300 | -61.52546 | 36 ft | 6 kts | 302° |
| 2026-04-28 16:45 | 16.26367 | -61.52578 | 35 ft | 14 kts | 349° |
| 2026-04-28 16:46 | 16.26427 | -61.52658 | 34 ft | 16 kts | 281° |
| 2026-04-28 16:46 | 16.26457 | -61.52804 | 34 ft | 24 kts | 282° |
| 2026-04-28 16:46 | 16.26499 | -61.53005 | 32 ft | 32 kts | 280° |
| 2026-04-28 16:46 | 16.26533 | -61.53254 | 36 ft | 37 kts | 276° |
| 2026-04-28 16:47 | 16.26586 | -61.53533 | 39 ft | 41 kts | 281° |
| 2026-04-28 16:47 | 16.26635 | -61.53849 | 41 ft | 45 kts | 281° |
| 2026-04-28 16:47 | 16.26700 | -61.54164 | 38 ft | 38 kts | 284° |
| 2026-04-28 16:47 | 16.26720 | -61.54340 | 35 ft | 14 kts | 256° |
| 2026-04-28 16:48 | 16.26736 | -61.54302 | 36 ft | 30 kts | 103° |
| 2026-04-28 16:48 | 16.26630 | -61.53727 | 42 ft | 126 kts | 102° |
| 2026-04-28 16:48 | 16.26419 | -61.52632 | 272 ft | 171 kts | 103° |
| 2026-04-28 16:48 | 16.26182 | -61.51434 | 1339 ft | 172 kts | 99° |
| 2026-04-28 16:49 | 16.25996 | -61.50334 | 2672 ft | 154 kts | 100° |
| 2026-04-28 16:49 | 16.25797 | -61.49250 | 3406 ft | 177 kts | 100° |
| 2026-04-28 16:49 | 16.25530 | -61.47786 | 3714 ft | 229 kts | 100° |
| 2026-04-28 16:49 | 16.25219 | -61.46092 | 4650 ft | 246 kts | 99° |
| 2026-04-28 16:50 | 16.24894 | -61.44325 | 5652 ft | 258 kts | 99° |
| 2026-04-28 16:50 | 16.24563 | -61.42478 | 6697 ft | 266 kts | 96° |
| 2026-04-28 16:50 | 16.24729 | -61.40581 | 7769 ft | 269 kts | 68° |
| 2026-04-28 16:50 | 16.25759 | -61.38994 | 8811 ft | 274 kts | 41° |
| 2026-04-28 16:51 | 16.27441 | -61.38097 | 9844 ft | 281 kts | 12° |
| 2026-04-28 16:51 | 16.29390 | -61.38229 | 10766 ft | 293 kts | 343° |
| 2026-04-28 16:51 | 16.31319 | -61.39014 | 11711 ft | 302 kts | 339° |
| 2026-04-28 16:51 | 16.33284 | -61.39842 | 12655 ft | 307 kts | 339° |
| 2026-04-28 16:52 | 16.35279 | -61.40675 | 13577 ft | 313 kts | 338° |
| 2026-04-28 16:52 | 16.37300 | -61.41519 | 14472 ft | 317 kts | 337° |
| 2026-04-28 16:52 | 16.39362 | -61.42377 | 15367 ft | 322 kts | 336° |
| 2026-04-28 16:52 | 16.41445 | -61.43244 | 16214 ft | 327 kts | 336° |
| 2026-04-28 16:53 | 16.43553 | -61.44120 | 17045 ft | 331 kts | 335° |
| 2026-04-28 16:53 | 16.45714 | -61.45018 | 17827 ft | 336 kts | 335° |
| 2026-04-28 16:53 | 16.47907 | -61.45927 | 18588 ft | 340 kts | 335° |
| 2026-04-28 16:53 | 16.50099 | -61.46870 | 19341 ft | 342 kts | 329° |
| 2026-04-28 16:54 | 16.52013 | -61.48264 | 20030 ft | 339 kts | 311° |
| 2026-04-28 16:54 | 16.53373 | -61.50217 | 20676 ft | 336 kts | 292° |
| 2026-04-28 16:54 | 16.54024 | -61.52543 | 21331 ft | 334 kts | 274° |
| 2026-04-28 16:54 | 16.54154 | -61.54950 | 21949 ft | 337 kts | 269° |
| 2026-04-28 16:55 | 16.54243 | -61.57407 | 22622 ft | 339 kts | 270° |
| 2026-04-28 16:55 | 16.54336 | -61.59864 | 23282 ft | 342 kts | 270° |
| 2026-04-28 16:55 | 16.54430 | -61.62335 | 23941 ft | 345 kts | 270° |
| 2026-04-28 16:55 | 16.54526 | -61.64840 | 24615 ft | 348 kts | 270° |
| 2026-04-28 16:56 | 16.54621 | -61.67345 | 25270 ft | 350 kts | 270° |
| 2026-04-28 16:56 | 16.54716 | -61.69880 | 25851 ft | 354 kts | 270° |
| 2026-04-28 16:56 | 16.54813 | -61.72437 | 26421 ft | 357 kts | 270° |
| 2026-04-28 16:56 | 16.54911 | -61.75021 | 27001 ft | 360 kts | 269° |
| 2026-04-28 16:57 | 16.55010 | -61.77661 | 27569 ft | 363 kts | 270° |
| 2026-04-28 16:57 | 16.55108 | -61.80272 | 28093 ft | 366 kts | 269° |
| 2026-04-28 16:57 | 16.55207 | -61.82936 | 28469 ft | 373 kts | 269° |
| 2026-04-28 16:58 | 16.55411 | -61.88417 | 28530 ft | 378 kts | 269° |
| 2026-04-28 16:58 | 16.55612 | -61.93809 | 28533 ft | 371 kts | 270° |
| 2026-04-28 16:59 | 16.55811 | -61.99192 | 28534 ft | 370 kts | 269° |
| 2026-04-28 16:59 | 16.56005 | -62.04528 | 28540 ft | 369 kts | 269° |
| 2026-04-28 17:00 | 16.56199 | -62.09882 | 28536 ft | 369 kts | 269° |
| 2026-04-28 17:00 | 16.56396 | -62.15218 | 28537 ft | 370 kts | 271° |
| 2026-04-28 17:00 | 16.56869 | -62.17866 | 28546 ft | 374 kts | 286° |
| 2026-04-28 17:01 | 16.57951 | -62.20328 | 28538 ft | 378 kts | 292° |
| 2026-04-28 17:01 | 16.60311 | -62.25240 | 28540 ft | 379 kts | 292° |
| 2026-04-28 17:02 | 16.62655 | -62.30140 | 28543 ft | 378 kts | 292° |
| 2026-04-28 17:02 | 16.65004 | -62.35055 | 28539 ft | 378 kts | 292° |
| 2026-04-28 17:03 | 16.68509 | -62.42395 | 28539 ft | 378 kts | 292° |
| 2026-04-28 17:03 | 16.70838 | -62.47279 | 28534 ft | 378 kts | 292° |
| 2026-04-28 17:04 | 16.74356 | -62.54659 | 28530 ft | 377 kts | 292° |
| 2026-04-28 17:05 | 16.77839 | -62.61977 | 28527 ft | 376 kts | 292° |
| 2026-04-28 17:06 | 16.81332 | -62.69322 | 28527 ft | 377 kts | 292° |
| 2026-04-28 17:06 | 16.84814 | -62.76656 | 28529 ft | 376 kts | 292° |
| 2026-04-28 17:07 | 16.87135 | -62.81545 | 28532 ft | 376 kts | 292° |
| 2026-04-28 17:07 | 16.89446 | -62.86420 | 28529 ft | 376 kts | 292° |
| 2026-04-28 17:08 | 16.91765 | -62.91314 | 28531 ft | 375 kts | 292° |
| 2026-04-28 17:08 | 16.94090 | -62.96225 | 28532 ft | 375 kts | 292° |
| 2026-04-28 17:09 | 16.96407 | -63.01147 | 28816 ft | 387 kts | 291° |
| 2026-04-28 17:09 | 16.97579 | -63.03686 | 29466 ft | 386 kts | 291° |
| 2026-04-28 17:09 | 16.98739 | -63.06195 | 30156 ft | 383 kts | 291° |
| 2026-04-28 17:10 | 16.99885 | -63.08678 | 30756 ft | 382 kts | 291° |
| 2026-04-28 17:10 | 17.01039 | -63.11180 | 31226 ft | 384 kts | 291° |
| 2026-04-28 17:10 | 17.02202 | -63.13703 | 31682 ft | 385 kts | 291° |
| 2026-04-28 17:10 | 17.03359 | -63.16214 | 32101 ft | 387 kts | 291° |
| 2026-04-28 17:11 | 17.04528 | -63.18753 | 32512 ft | 389 kts | 291° |
| 2026-04-28 17:11 | 17.05705 | -63.21308 | 32904 ft | 391 kts | 291° |
| 2026-04-28 17:11 | 17.06881 | -63.23862 | 33338 ft | 392 kts | 291° |
| 2026-04-28 17:11 | 17.08067 | -63.26438 | 33720 ft | 395 kts | 291° |
| 2026-04-28 17:12 | 17.09265 | -63.29042 | 34139 ft | 395 kts | 292° |
| 2026-04-28 17:12 | 17.10440 | -63.31594 | 34653 ft | 393 kts | 292° |
| 2026-04-28 17:12 | 17.11638 | -63.34199 | 35237 ft | 389 kts | 291° |
| 2026-04-28 17:12 | 17.12796 | -63.36717 | 35779 ft | 386 kts | 292° |
| 2026-04-28 17:13 | 17.13948 | -63.39223 | 36265 ft | 383 kts | 292° |
| 2026-04-28 17:13 | 17.15105 | -63.41743 | 36657 ft | 382 kts | 292° |
| 2026-04-28 17:13 | 17.16251 | -63.44237 | 37011 ft | 381 kts | 292° |
| 2026-04-28 17:13 | 17.17393 | -63.46727 | 37356 ft | 381 kts | 292° |
| 2026-04-28 17:14 | 17.18543 | -63.49236 | 37662 ft | 381 kts | 292° |
| 2026-04-28 17:14 | 17.19678 | -63.51710 | 37979 ft | 380 kts | 292° |
| 2026-04-28 17:14 | 17.20818 | -63.54197 | 38273 ft | 379 kts | 292° |
| 2026-04-28 17:14 | 17.21963 | -63.56696 | 38558 ft | 378 kts | 292° |
| 2026-04-28 17:15 | 17.23103 | -63.59185 | 38802 ft | 378 kts | 292° |
| 2026-04-28 17:15 | 17.24243 | -63.61676 | 39021 ft | 379 kts | 292° |
| 2026-04-28 17:15 | 17.25379 | -63.64158 | 39269 ft | 379 kts | 292° |
| 2026-04-28 17:15 | 17.26505 | -63.66618 | 39539 ft | 378 kts | 292° |
| 2026-04-28 17:16 | 17.27634 | -63.69087 | 39804 ft | 377 kts | 292° |
| 2026-04-28 17:16 | 17.28775 | -63.71584 | 40031 ft | 377 kts | 292° |
| 2026-04-28 17:16 | 17.31052 | -63.76569 | 40036 ft | 386 kts | 292° |
| 2026-04-28 17:17 | 17.33395 | -63.81706 | 40030 ft | 393 kts | 292° |
| 2026-04-28 17:17 | 17.35770 | -63.86913 | 40031 ft | 400 kts | 292° |
| 2026-04-28 17:18 | 17.38178 | -63.92196 | 40030 ft | 407 kts | 292° |
| 2026-04-28 17:18 | 17.40626 | -63.97573 | 40030 ft | 412 kts | 292° |
| 2026-04-28 17:19 | 17.43105 | -64.03020 | 40031 ft | 417 kts | 292° |
| 2026-04-28 17:19 | 17.45599 | -64.08504 | 40029 ft | 421 kts | 292° |
| 2026-04-28 17:20 | 17.47699 | -64.13126 | 40029 ft | 423 kts | 292° |
| 2026-04-28 17:20 | 17.50656 | -64.19640 | 40030 ft | 423 kts | 292° |
| 2026-04-28 17:21 | 17.53174 | -64.25191 | 40027 ft | 423 kts | 292° |
| 2026-04-28 17:22 | 17.56969 | -64.33568 | 40028 ft | 422 kts | 292° |
| 2026-04-28 17:22 | 17.59475 | -64.39105 | 40028 ft | 422 kts | 292° |
| 2026-04-28 17:23 | 17.63251 | -64.47459 | 40025 ft | 422 kts | 292° |
| 2026-04-28 17:23 | 17.65752 | -64.53000 | 40034 ft | 421 kts | 292° |
| 2026-04-28 17:24 | 17.68262 | -64.58565 | 40037 ft | 421 kts | 292° |
| 2026-04-28 17:24 | 17.70752 | -64.64090 | 40042 ft | 421 kts | 292° |
| 2026-04-28 17:25 | 17.74679 | -64.72375 | 40055 ft | 424 kts | 296° |
| 2026-04-28 17:26 | 17.77663 | -64.77699 | 40053 ft | 424 kts | 296° |
| 2026-04-28 17:26 | 17.80648 | -64.83040 | 40043 ft | 424 kts | 296° |
| 2026-04-28 17:27 | 17.83637 | -64.88398 | 40042 ft | 424 kts | 296° |
| 2026-04-28 17:27 | 17.86617 | -64.93747 | 40037 ft | 424 kts | 296° |
| 2026-04-28 17:28 | 17.89598 | -64.99103 | 40039 ft | 425 kts | 296° |
| 2026-04-28 17:28 | 17.94066 | -65.07144 | 40027 ft | 425 kts | 296° |
| 2026-04-28 17:29 | 17.97060 | -65.12540 | 40030 ft | 424 kts | 296° |
| 2026-04-28 17:30 | 18.01505 | -65.20560 | 40028 ft | 424 kts | 296° |
| 2026-04-28 17:30 | 18.05965 | -65.28618 | 40032 ft | 425 kts | 296° |
| 2026-04-28 17:31 | 18.10417 | -65.36672 | 40028 ft | 425 kts | 296° |
| 2026-04-28 17:32 | 18.14871 | -65.44740 | 40028 ft | 425 kts | 296° |
| 2026-04-28 17:32 | 18.17845 | -65.50133 | 40028 ft | 425 kts | 296° |
| 2026-04-28 17:33 | 18.20803 | -65.55502 | 40033 ft | 425 kts | 295° |
| 2026-04-28 17:33 | 18.23264 | -65.59974 | 40045 ft | 425 kts | 295° |
| 2026-04-28 17:34 | 18.26721 | -65.66260 | 40051 ft | 426 kts | 295° |
| 2026-04-28 17:34 | 18.29706 | -65.71692 | 40051 ft | 427 kts | 295° |
| 2026-04-28 17:35 | 18.32659 | -65.77070 | 40055 ft | 427 kts | 295° |
| 2026-04-28 17:35 | 18.35645 | -65.82513 | 40047 ft | 426 kts | 295° |
| 2026-04-28 17:36 | 18.38600 | -65.87905 | 40042 ft | 426 kts | 295° |
| 2026-04-28 17:36 | 18.41572 | -65.93331 | 40036 ft | 426 kts | 295° |
| 2026-04-28 17:37 | 18.44526 | -65.98743 | 40032 ft | 426 kts | 294° |
| 2026-04-28 17:37 | 18.47319 | -66.04269 | 40030 ft | 425 kts | 293° |
| 2026-04-28 17:38 | 18.50084 | -66.09785 | 40027 ft | 426 kts | 293° |
| 2026-04-28 17:38 | 18.52832 | -66.15271 | 40031 ft | 425 kts | 293° |
| 2026-04-28 17:39 | 18.55600 | -66.20802 | 40030 ft | 425 kts | 293° |
| 2026-04-28 17:40 | 18.59720 | -66.29044 | 40019 ft | 425 kts | 293° |
| 2026-04-28 17:40 | 18.62476 | -66.34564 | 40022 ft | 425 kts | 293° |
| 2026-04-28 17:41 | 18.65236 | -66.40103 | 40011 ft | 426 kts | 292° |
| 2026-04-28 17:41 | 18.67968 | -66.45637 | 40009 ft | 426 kts | 292° |
| 2026-04-28 17:42 | 18.70693 | -66.51158 | 40009 ft | 426 kts | 292° |
| 2026-04-28 17:42 | 18.73430 | -66.56712 | 40009 ft | 426 kts | 292° |
| 2026-04-28 17:43 | 18.76178 | -66.62203 | 40009 ft | 427 kts | 296° |
| 2026-04-28 17:43 | 18.79502 | -66.67470 | 40011 ft | 430 kts | 298° |
| 2026-04-28 17:44 | 18.82842 | -66.72684 | 40011 ft | 430 kts | 298° |
| 2026-04-28 17:44 | 18.86196 | -66.77927 | 40010 ft | 430 kts | 298° |
| 2026-04-28 17:45 | 18.89528 | -66.83143 | 40007 ft | 429 kts | 298° |
| 2026-04-28 17:45 | 18.92855 | -66.88357 | 40010 ft | 429 kts | 298° |
| 2026-04-28 17:46 | 18.96179 | -66.93575 | 40008 ft | 430 kts | 298° |
| 2026-04-28 17:46 | 18.99532 | -66.98843 | 40008 ft | 430 kts | 298° |
| 2026-04-28 17:47 | 19.02858 | -67.04073 | 40009 ft | 430 kts | 298° |
| 2026-04-28 17:47 | 19.06189 | -67.09316 | 40011 ft | 429 kts | 298° |
| 2026-04-28 17:48 | 19.09503 | -67.14539 | 40010 ft | 428 kts | 298° |
| 2026-04-28 17:48 | 19.12826 | -67.19779 | 40011 ft | 427 kts | 298° |
| 2026-04-28 17:49 | 19.16116 | -67.24972 | 40012 ft | 427 kts | 298° |
| 2026-04-28 17:49 | 19.19405 | -67.30170 | 40014 ft | 427 kts | 298° |
| 2026-04-28 17:50 | 19.22719 | -67.35411 | 40014 ft | 426 kts | 298° |
| 2026-04-28 17:50 | 19.26003 | -67.40610 | 40010 ft | 426 kts | 298° |
| 2026-04-28 17:51 | 19.29307 | -67.45843 | 40010 ft | 426 kts | 298° |
| 2026-04-28 17:51 | 19.32573 | -67.51022 | 40009 ft | 425 kts | 298° |
| 2026-04-28 17:52 | 19.35848 | -67.56220 | 40006 ft | 424 kts | 298° |
| 2026-04-28 17:52 | 19.40741 | -67.63993 | 40010 ft | 423 kts | 298° |
| 2026-04-28 17:53 | 19.44022 | -67.69211 | 40012 ft | 422 kts | 298° |
| 2026-04-28 17:53 | 19.47252 | -67.74353 | 40006 ft | 421 kts | 298° |
| 2026-04-28 17:54 | 19.50506 | -67.79537 | 40010 ft | 420 kts | 298° |
| 2026-04-28 17:54 | 19.53733 | -67.84682 | 40006 ft | 420 kts | 298° |
| 2026-04-28 17:55 | 19.56963 | -67.89837 | 40006 ft | 420 kts | 298° |
| 2026-04-28 17:55 | 19.60183 | -67.94979 | 40009 ft | 420 kts | 298° |
| 2026-04-28 17:56 | 19.63415 | -68.00146 | 40008 ft | 419 kts | 298° |
| 2026-04-28 17:56 | 19.66631 | -68.05290 | 40010 ft | 418 kts | 298° |
| 2026-04-28 17:57 | 19.69837 | -68.10423 | 40008 ft | 417 kts | 298° |
| 2026-04-28 17:57 | 19.73037 | -68.15551 | 40008 ft | 417 kts | 298° |
| 2026-04-28 17:58 | 19.76228 | -68.20671 | 40009 ft | 417 kts | 298° |
| 2026-04-28 17:58 | 19.79444 | -68.25834 | 40010 ft | 417 kts | 298° |
| 2026-04-28 17:59 | 19.82633 | -68.30959 | 40009 ft | 417 kts | 298° |
| 2026-04-28 17:59 | 19.85839 | -68.36114 | 40010 ft | 417 kts | 298° |
| 2026-04-28 18:00 | 19.89038 | -68.41263 | 40009 ft | 417 kts | 298° |
| 2026-04-28 18:00 | 19.92231 | -68.46407 | 40014 ft | 417 kts | 298° |
| 2026-04-28 18:01 | 19.95448 | -68.51593 | 40010 ft | 417 kts | 298° |
| 2026-04-28 18:01 | 19.98435 | -68.56413 | 40010 ft | 416 kts | 298° |